createdAt,value
2018-07-27T00:01:39.847Z,97114.07
2018-07-27T00:04:08.996Z,97116.12
2018-07-27T00:06:39.261Z,97105.34
2018-07-27T00:09:13.711Z,97112.83
2018-07-27T00:11:43.305Z,97107.42
2018-07-27T00:14:12.064Z,97104.17
2018-07-27T00:16:40.901Z,97111.48
2018-07-27T00:19:09.519Z,97109.78
2018-07-27T00:21:38.282Z,97110.53
2018-07-27T00:24:07.152Z,97112.86
2018-07-27T00:26:35.994Z,97114.62
2018-07-27T00:29:04.908Z,97110.56
2018-07-27T00:31:33.797Z,97113.96
2018-07-27T00:34:02.363Z,97120.30
2018-07-27T00:36:31.168Z,97108.26
2018-07-27T00:39:00.719Z,97115.83
2018-07-27T00:41:31.462Z,97109.07
2018-07-27T00:44:00.137Z,97114.82
2018-07-27T00:46:29.728Z,97104.09
2018-07-27T00:48:59.761Z,97111.68
2018-07-27T00:51:30.333Z,97110.78
2018-07-27T00:53:59.987Z,97116.87
2018-07-27T00:56:29.755Z,97116.91
2018-07-27T00:58:59.514Z,97116.27
2018-07-27T01:01:28.418Z,97114.98
2018-07-27T01:03:57.805Z,97110.21
2018-07-27T01:06:27.561Z,97115.01
2018-07-27T01:08:56.575Z,97118.30
2018-07-27T01:11:25.585Z,97117.55
2018-07-27T01:13:54.228Z,97110.57
2018-07-27T01:16:22.968Z,97108.67
2018-07-27T01:18:51.675Z,97109.03
2018-07-27T01:21:20.299Z,97101.51
2018-07-27T01:23:49.071Z,97106.05
2018-07-27T01:26:17.868Z,97102.70
2018-07-27T01:28:46.672Z,97109.28
2018-07-27T01:31:15.576Z,97112.22
2018-07-27T01:33:44.344Z,97106.17
2018-07-27T01:36:13.081Z,97105.19
2018-07-27T01:38:41.911Z,97109.98
2018-07-27T01:41:10.664Z,97109.95
2018-07-27T01:43:39.440Z,97107.63
2018-07-27T01:46:08.319Z,97108.34
2018-07-27T01:48:37.352Z,97108.61
2018-07-27T01:51:06.445Z,97110.48
2018-07-27T01:53:35.300Z,97106.36
2018-07-27T01:56:04.000Z,97107.39
2018-07-27T01:58:33.191Z,97106.81
2018-07-27T02:01:02.252Z,97107.38
2018-07-27T02:03:31.191Z,97102.47
2018-07-27T02:05:59.930Z,97107.32
2018-07-27T02:08:29.415Z,97106.23
2018-07-27T02:10:58.143Z,97104.23
2018-07-27T02:13:26.776Z,97104.05
2018-07-27T02:15:56.367Z,97106.50
2018-07-27T02:18:25.265Z,97097.87
2018-07-27T02:20:54.347Z,97102.16
2018-07-27T02:23:23.040Z,97099.96
2018-07-27T02:25:51.658Z,97095.17
2018-07-27T02:28:20.670Z,97099.03
2018-07-27T02:30:49.894Z,97103.14
2018-07-27T02:33:18.797Z,97101.27
2018-07-27T02:35:47.396Z,97100.66
2018-07-27T02:38:16.281Z,97096.70
2018-07-27T02:40:45.037Z,97096.45
2018-07-27T02:43:13.680Z,97101.60
2018-07-27T02:45:42.468Z,97097.53
2018-07-27T02:48:11.114Z,97085.39
2018-07-27T02:50:39.757Z,97079.33
2018-07-27T02:53:08.615Z,97083.75
2018-07-27T02:55:37.624Z,97081.19
2018-07-27T02:58:08.292Z,97082.56
2018-07-27T03:00:37.460Z,97077.66
2018-07-27T03:03:06.264Z,97079.41
2018-07-27T03:05:34.887Z,97074.86
2018-07-27T03:08:03.705Z,97073.34
2018-07-27T03:10:32.478Z,97074.86
2018-07-27T03:13:01.088Z,97078.12
2018-07-27T03:15:29.767Z,97077.66
2018-07-27T03:17:59.373Z,97073.94
2018-07-27T03:20:28.878Z,97070.91
2018-07-27T03:22:58.049Z,97072.19
2018-07-27T03:25:26.849Z,97079.07
2018-07-27T03:27:55.456Z,97076.14
2018-07-27T03:30:24.331Z,97074.50
2018-07-27T03:32:53.148Z,97073.70
2018-07-27T03:35:21.876Z,97067.75
2018-07-27T03:37:51.057Z,97068.90
2018-07-27T03:40:19.858Z,97071.59
2018-07-27T03:42:48.512Z,97065.05
2018-07-27T03:45:17.162Z,97069.27
2018-07-27T03:47:46.012Z,97054.89
2018-07-27T03:50:14.814Z,97057.34
2018-07-27T03:52:43.567Z,97056.98
2018-07-27T03:55:12.208Z,97060.37
2018-07-27T03:57:40.817Z,97057.80
2018-07-27T04:00:11.701Z,97057.57
2018-07-27T04:02:40.580Z,97052.09
2018-07-27T04:05:09.512Z,97054.30
2018-07-27T04:07:38.875Z,97054.08
2018-07-27T04:10:07.585Z,97054.67
2018-07-27T04:12:36.383Z,97054.08
2018-07-27T04:15:05.637Z,97048.58
2018-07-27T04:17:34.633Z,97046.14
2018-07-27T04:20:03.351Z,97046.00
2018-07-27T04:22:32.342Z,97051.73
2018-07-27T04:25:01.195Z,97048.00
2018-07-27T04:27:29.848Z,97049.52
2018-07-27T04:29:58.580Z,97044.88
2018-07-27T04:32:27.627Z,97042.18
2018-07-27T04:34:56.443Z,97043.70
2018-07-27T04:37:25.403Z,97046.41
2018-07-27T04:39:54.223Z,97040.99
2018-07-27T04:42:22.902Z,97036.91
2018-07-27T04:44:51.769Z,97039.47
2018-07-27T04:47:20.900Z,97036.69
2018-07-27T04:49:49.556Z,97048.22
2018-07-27T04:52:18.587Z,97048.94
2018-07-27T04:54:47.580Z,97048.11
2018-07-27T04:57:17.991Z,97044.37
2018-07-27T04:59:46.683Z,97045.06
2018-07-27T05:02:15.412Z,97044.63
2018-07-27T05:04:44.752Z,97043.33
2018-07-27T05:07:13.572Z,97048.45
2018-07-27T05:09:42.223Z,97044.37
2018-07-27T05:12:10.936Z,97046.34
2018-07-27T05:14:39.480Z,97048.02
2018-07-27T05:17:08.481Z,97053.58
2018-07-27T05:19:37.523Z,97053.81
2018-07-27T05:22:06.172Z,97050.72
2018-07-27T05:24:35.338Z,97052.87
2018-07-27T05:27:04.196Z,97061.34
2018-07-27T05:29:32.904Z,97062.88
2018-07-27T05:32:01.799Z,97057.50
2018-07-27T05:34:30.776Z,97058.48
2018-07-27T05:36:59.413Z,97057.56
2018-07-27T05:39:28.079Z,97064.82
2018-07-27T05:41:57.053Z,97062.66
2018-07-27T05:44:25.652Z,97064.73
2018-07-27T05:46:54.436Z,97068.33
2018-07-27T05:49:23.289Z,97067.04
2018-07-27T05:51:52.157Z,97063.27
2018-07-27T05:54:21.804Z,97063.78
2018-07-27T05:56:50.628Z,97065.58
2018-07-27T05:59:19.251Z,97072.72
2018-07-27T06:01:48.183Z,97074.06
2018-07-27T06:04:17.148Z,97072.18
2018-07-27T06:06:46.108Z,97071.39
2018-07-27T06:09:14.798Z,97073.02
2018-07-27T06:11:43.491Z,97073.24
2018-07-27T06:14:12.144Z,97076.88
2018-07-27T06:16:40.952Z,97075.82
2018-07-27T06:19:10.163Z,97070.25
2018-07-27T06:21:38.937Z,97072.52
2018-07-27T06:24:08.030Z,97066.72
2018-07-27T06:26:36.845Z,97065.39
2018-07-27T06:29:05.504Z,97061.78
2018-07-27T06:31:34.299Z,97061.80
2018-07-27T06:34:02.945Z,97058.00
2018-07-27T06:36:31.713Z,97065.98
2018-07-27T06:39:00.480Z,97065.52
2018-07-27T06:41:29.053Z,97061.11
2018-07-27T06:43:57.704Z,97065.45
2018-07-27T06:46:26.404Z,97065.66
2018-07-27T06:48:55.360Z,97073.32
2018-07-27T06:51:24.116Z,97068.98
2018-07-27T06:53:53.685Z,97067.17
2018-07-27T06:56:22.592Z,97075.77
2018-07-27T06:58:51.153Z,97066.98
2018-07-27T07:01:19.731Z,97066.51
2018-07-27T07:03:48.880Z,97066.91
2018-07-27T07:06:17.512Z,97066.28
2018-07-27T07:08:46.428Z,97067.88
2018-07-27T07:11:15.648Z,97071.19
2018-07-27T07:13:44.400Z,97065.63
2018-07-27T07:16:13.325Z,97068.02
2018-07-27T07:18:42.283Z,97074.39
2018-07-27T07:21:11.611Z,97077.57
2018-07-27T07:23:40.696Z,97079.59
2018-07-27T07:26:09.814Z,97077.60
2018-07-27T07:28:38.321Z,97074.00
2018-07-27T07:31:06.987Z,97072.03
2018-07-27T07:33:36.071Z,97071.22
2018-07-27T07:36:04.791Z,97074.34
2018-07-27T07:38:33.324Z,97072.52
2018-07-27T07:41:02.962Z,97072.13
2018-07-27T07:43:32.032Z,97077.37
2018-07-27T07:46:00.713Z,97068.36
2018-07-27T07:48:29.512Z,97069.36
2018-07-27T07:50:58.152Z,97068.98
2018-07-27T07:53:26.968Z,97072.22
2018-07-27T07:55:55.779Z,97071.63
2018-07-27T07:58:24.549Z,97073.84
2018-07-27T08:00:53.221Z,97070.68
2018-07-27T08:03:21.959Z,97070.31
2018-07-27T08:05:50.596Z,97068.72
2018-07-27T08:08:19.193Z,97072.33
2018-07-27T08:10:48.844Z,97074.94
2018-07-27T08:13:17.500Z,97073.32
2018-07-27T08:15:46.379Z,97074.80
2018-07-27T08:18:15.241Z,97065.41
2018-07-27T08:20:44.061Z,97067.23
2018-07-27T08:23:12.717Z,97065.36
2018-07-27T08:26:57.745Z,97068.65
2018-07-27T08:29:30.509Z,97063.72
2018-07-27T08:31:59.756Z,97058.89
2018-07-27T08:34:28.379Z,97068.65
2018-07-27T08:36:57.005Z,97063.81
2018-07-27T08:39:26.924Z,97069.69
2018-07-27T08:41:55.880Z,97061.41
2018-07-27T08:44:26.860Z,97064.79
2018-07-27T08:46:55.555Z,97071.67
2018-07-27T08:49:24.369Z,97061.16
2018-07-27T08:51:53.147Z,97057.58
2018-07-27T08:54:22.232Z,97061.73
2018-07-27T08:56:51.043Z,97056.39
2018-07-27T08:59:19.772Z,97053.61
2018-07-27T09:01:48.403Z,97053.84
2018-07-27T09:04:17.159Z,97060.40
2018-07-27T09:06:46.030Z,97058.22
2018-07-27T09:09:16.036Z,97061.08
2018-07-27T09:11:44.967Z,97055.72
2018-07-27T09:14:13.627Z,97054.31
2018-07-27T09:16:42.491Z,97052.53
2018-07-27T09:19:11.163Z,97053.91
2018-07-27T09:21:39.865Z,97052.61
2018-07-27T09:24:08.801Z,97046.45
2018-07-27T09:26:43.771Z,97039.47
2018-07-27T09:29:12.616Z,97043.34
2018-07-27T09:31:41.165Z,97040.06
2018-07-27T09:34:10.202Z,97043.61
2018-07-27T09:36:38.836Z,97043.41
2018-07-27T09:39:09.681Z,97038.16
2018-07-27T09:41:38.285Z,97035.44
2018-07-27T09:44:07.924Z,97042.83
2018-07-27T09:46:37.085Z,97039.31
2018-07-27T09:49:05.876Z,97038.48
2018-07-27T09:51:34.786Z,97031.19
2018-07-27T09:54:03.676Z,97033.38
2018-07-27T09:56:32.364Z,97031.27
2018-07-27T09:59:01.143Z,97031.36
2018-07-27T10:01:30.744Z,97022.80
2018-07-27T10:03:59.445Z,97026.16
2018-07-27T10:06:28.383Z,97026.46
2018-07-27T10:08:57.307Z,97025.39
2018-07-27T10:11:25.964Z,97024.55
2018-07-27T10:13:54.565Z,97023.73
2018-07-27T10:16:23.312Z,97024.30
2018-07-27T10:18:51.866Z,97018.76
2018-07-27T10:21:20.483Z,97012.11
2018-07-27T10:23:49.436Z,97017.08
2018-07-27T10:26:18.170Z,97017.47
2018-07-27T10:28:46.747Z,97019.59
2018-07-27T10:31:15.555Z,97018.39
2018-07-27T10:33:44.431Z,97018.05
2018-07-27T10:36:13.001Z,97004.78
2018-07-27T10:38:41.926Z,97009.84
2018-07-27T10:41:10.856Z,97010.16
2018-07-27T10:43:39.528Z,97011.72
2018-07-27T10:46:08.497Z,97001.95
2018-07-27T10:48:37.245Z,97006.18
2018-07-27T10:51:06.203Z,96996.18
2018-07-27T10:53:34.956Z,96994.94
2018-07-27T10:56:03.685Z,96995.33
2018-07-27T10:58:32.371Z,97000.23
2018-07-27T11:01:01.243Z,96991.66
2018-07-27T11:03:29.964Z,96985.47
2018-07-27T11:05:58.580Z,96987.63
2018-07-27T11:08:27.207Z,96983.07
2018-07-27T11:10:55.848Z,96985.39
2018-07-27T11:13:24.636Z,96986.42
2018-07-27T11:15:53.349Z,96978.80
2018-07-27T11:18:22.113Z,96977.42
2018-07-27T11:20:50.888Z,96974.70
2018-07-27T11:23:19.576Z,96970.20
2018-07-27T11:25:48.263Z,96963.83
2018-07-27T11:28:16.943Z,96963.84
2018-07-27T11:30:45.699Z,96966.73
2018-07-27T11:33:14.336Z,96965.11
2018-07-27T11:35:43.326Z,96962.35
2018-07-27T11:38:12.207Z,96965.84
2018-07-27T11:40:41.318Z,96956.78
2018-07-27T11:43:10.120Z,96955.86
2018-07-27T11:45:38.819Z,96953.05
2018-07-27T11:48:07.465Z,96953.50
2018-07-27T11:50:36.115Z,96957.17
2018-07-27T11:53:05.026Z,96951.20
2018-07-27T11:55:33.781Z,96945.76
2018-07-27T11:58:02.587Z,96938.59
2018-07-27T12:00:31.533Z,96949.06
2018-07-27T12:03:00.195Z,96939.80
2018-07-27T12:05:28.791Z,96931.89
2018-07-27T12:07:57.393Z,96932.91
2018-07-27T12:10:26.065Z,96923.34
2018-07-27T12:12:54.908Z,96928.55
2018-07-27T12:15:23.807Z,96928.73
2018-07-27T12:17:52.678Z,96920.47
2018-07-27T12:20:21.345Z,96918.77
2018-07-27T12:22:50.256Z,96916.46
2018-07-27T12:25:18.928Z,96915.13
2018-07-27T12:27:47.552Z,96909.68
2018-07-27T12:30:16.120Z,96910.16
2018-07-27T12:32:44.755Z,96911.80
2018-07-27T12:35:13.420Z,96905.78
2018-07-27T12:37:42.551Z,96906.19
2018-07-27T12:40:11.263Z,96903.67
2018-07-27T12:42:39.978Z,96908.87
2018-07-27T12:45:08.711Z,96902.80
2018-07-27T12:47:37.931Z,96902.32
2018-07-27T12:50:06.657Z,96899.14
2018-07-27T12:52:35.536Z,96900.88
2018-07-27T12:55:04.540Z,96897.33
2018-07-27T12:57:33.124Z,96894.31
2018-07-27T13:00:01.961Z,96896.61
2018-07-27T13:02:30.599Z,96890.97
2018-07-27T13:04:59.280Z,96888.28
2018-07-27T13:07:28.140Z,96888.42
2018-07-27T13:10:02.016Z,96884.47
2018-07-27T13:12:30.932Z,96874.88
2018-07-27T13:15:00.289Z,96872.14
2018-07-27T13:17:28.912Z,96868.69
2018-07-27T13:19:59.566Z,96875.69
2018-07-27T13:22:28.884Z,96867.25
2018-07-27T13:24:58.246Z,96876.37
2018-07-27T13:27:26.896Z,96880.27
2018-07-27T13:29:57.137Z,96860.01
2018-07-27T13:32:27.027Z,96861.44
2018-07-27T13:34:58.117Z,96858.93
2018-07-27T13:37:28.818Z,96858.33
2018-07-27T13:39:58.606Z,96856.57
2018-07-27T13:42:29.477Z,96859.80
2018-07-27T13:44:59.784Z,96857.90
2018-07-27T13:47:29.742Z,96856.34
2018-07-27T13:49:59.455Z,96855.85
2018-07-27T13:52:29.440Z,96861.80
2018-07-27T13:54:58.664Z,96850.55
2018-07-27T13:57:27.803Z,96847.45
2018-07-27T13:59:57.195Z,96845.63
2018-07-27T14:02:26.762Z,96846.72
2018-07-27T14:04:55.968Z,96843.44
2018-07-27T14:07:25.432Z,96839.05
2018-07-27T14:09:54.068Z,96835.55
2018-07-27T14:12:22.978Z,96839.84
2018-07-27T14:14:52.271Z,96833.62
2018-07-27T14:17:21.435Z,96829.11
2018-07-27T14:19:51.127Z,96829.66
2018-07-27T14:22:20.159Z,96827.17
2018-07-27T14:24:48.772Z,96822.17
2018-07-27T14:27:17.800Z,96817.95
2018-07-27T14:29:46.604Z,96827.66
2018-07-27T14:32:15.261Z,96826.22
2018-07-27T14:34:44.584Z,96820.44
2018-07-27T14:37:13.149Z,96814.77
2018-07-27T14:39:41.861Z,96813.58
2018-07-27T14:42:10.639Z,96812.09
2018-07-27T14:44:39.271Z,96809.64
2018-07-27T14:47:07.888Z,96807.41
2018-07-27T14:49:36.890Z,96804.75
2018-07-27T14:52:05.952Z,96802.55
2018-07-27T14:54:34.808Z,96800.11
2018-07-27T14:57:03.892Z,96799.27
2018-07-27T14:59:32.616Z,96803.00
2018-07-27T15:02:01.551Z,96798.61
2018-07-27T15:04:30.449Z,96799.91
2018-07-27T15:06:59.152Z,96797.59
2018-07-27T15:09:28.217Z,96787.47
2018-07-27T15:11:57.119Z,96793.03
2018-07-27T15:14:26.296Z,96790.34
2018-07-27T15:16:55.124Z,96789.73
2018-07-27T15:19:24.024Z,96778.70
2018-07-27T15:21:52.776Z,96781.74
2018-07-27T15:24:21.700Z,96776.24
2018-07-27T15:26:50.468Z,96776.84
2018-07-27T15:29:20.093Z,96779.05
2018-07-27T15:31:48.859Z,96775.06
2018-07-27T15:34:17.739Z,96782.30
2018-07-27T15:36:46.417Z,96778.32
2018-07-27T15:39:15.207Z,96776.34
2018-07-27T15:41:43.888Z,96770.35
2018-07-27T15:44:12.704Z,96777.16
2018-07-27T15:46:41.951Z,96775.48
2018-07-27T15:49:13.116Z,96769.94
2018-07-27T15:51:43.358Z,96767.10
2018-07-27T15:54:12.151Z,96763.00
2018-07-27T15:56:41.353Z,96757.80
2018-07-27T15:59:10.331Z,96752.77
2018-07-27T16:01:39.337Z,96754.12
2018-07-27T16:04:08.544Z,96749.91
2018-07-27T16:06:37.283Z,96752.36
2018-07-27T16:09:08.460Z,96753.00
2018-07-27T16:11:37.306Z,96747.58
2018-07-27T16:14:06.105Z,96748.88
2018-07-27T16:16:35.043Z,96749.17
2018-07-27T16:19:03.932Z,96749.84
2018-07-27T16:21:32.696Z,96745.28
2018-07-27T16:24:02.168Z,96732.89
2018-07-27T16:26:30.992Z,96735.23
2018-07-27T16:28:59.644Z,96742.14
2018-07-27T16:31:28.495Z,96736.81
2018-07-27T16:33:57.647Z,96729.89
2018-07-27T16:36:26.220Z,96735.39
2018-07-27T16:38:55.248Z,96734.27
2018-07-27T16:41:24.015Z,96735.67
2018-07-27T16:43:52.582Z,96736.39
2018-07-27T16:46:21.449Z,96736.88
2018-07-27T16:48:50.791Z,96732.84
2018-07-27T16:51:20.238Z,96738.86
2018-07-27T16:53:49.320Z,96735.77
2018-07-27T16:56:18.068Z,96735.89
2018-07-27T16:58:46.867Z,96740.85
2018-07-27T17:01:16.315Z,96740.09
2018-07-27T17:03:45.131Z,96745.34
2018-07-27T17:06:13.842Z,96745.55
2018-07-27T17:08:42.671Z,96741.64
2018-07-27T17:11:11.523Z,96742.06
2018-07-27T17:13:40.721Z,96738.68
2018-07-27T17:16:09.436Z,96742.12
2018-07-27T17:18:38.398Z,96741.75
2018-07-27T17:21:07.387Z,96737.06
2018-07-27T17:23:36.425Z,96742.25
2018-07-27T17:26:05.267Z,96739.23
2018-07-27T17:28:34.115Z,96737.09
2018-07-27T17:31:03.192Z,96738.81
2018-07-27T17:33:32.261Z,96734.77
2018-07-27T17:36:01.025Z,96733.84
2018-07-27T17:38:30.056Z,96730.94
2018-07-27T17:40:59.616Z,96732.33
2018-07-27T17:43:28.738Z,96728.59
2018-07-27T17:45:57.472Z,96731.04
2018-07-27T17:48:26.221Z,96729.95
2018-07-27T17:50:55.337Z,96733.39
2018-07-27T17:53:24.008Z,96729.32
2018-07-27T17:55:53.688Z,96736.52
2018-07-27T17:58:22.811Z,96732.91
2018-07-27T18:00:51.932Z,96730.80
2018-07-27T18:03:20.559Z,96734.92
2018-07-27T18:05:49.680Z,96728.80
2018-07-27T18:08:18.623Z,96731.11
2018-07-27T18:10:47.349Z,96736.63
2018-07-27T18:13:16.169Z,96732.33
2018-07-27T18:15:44.846Z,96728.20
2018-07-27T18:18:13.656Z,96735.09
2018-07-27T18:20:42.444Z,96736.16
2018-07-27T18:23:11.251Z,96736.25
2018-07-27T18:25:39.972Z,96741.61
2018-07-27T18:28:08.543Z,96743.59
2018-07-27T18:30:37.644Z,96739.14
2018-07-27T18:33:06.737Z,96741.14
2018-07-27T18:35:35.657Z,96741.33
2018-07-27T18:38:04.668Z,96740.91
2018-07-27T18:40:33.416Z,96738.91
2018-07-27T18:43:02.012Z,96740.81
2018-07-27T18:45:30.820Z,96742.04
2018-07-27T18:47:59.601Z,96743.70
2018-07-27T18:50:28.471Z,96741.96
2018-07-27T18:52:57.599Z,96745.03
2018-07-27T18:55:26.421Z,96743.89
2018-07-27T18:57:55.214Z,96734.98
2018-07-27T19:00:23.851Z,96739.20
2018-07-27T19:02:52.567Z,96737.14
2018-07-27T19:05:21.436Z,96741.89
2018-07-27T19:07:50.012Z,96742.31
2018-07-27T19:10:18.926Z,96746.30
2018-07-27T19:12:47.873Z,96745.18
2018-07-27T19:15:17.011Z,96744.51
2018-07-27T19:17:45.872Z,96749.41
2018-07-27T19:20:14.801Z,96763.06
2018-07-27T19:22:43.712Z,96761.19
2018-07-27T19:25:12.540Z,96761.44
2018-07-27T19:27:41.205Z,96771.30
2018-07-27T19:30:11.683Z,96765.92
2018-07-27T19:32:40.424Z,96768.41
2018-07-27T19:35:09.206Z,96771.14
2018-07-27T19:37:38.212Z,96763.06
2018-07-27T19:40:07.297Z,96772.59
2018-07-27T19:42:36.334Z,96778.77
2018-07-27T19:45:06.148Z,96773.35
2018-07-27T19:47:35.074Z,96774.80
2018-07-27T19:50:04.058Z,96779.20
2018-07-27T19:52:32.755Z,96780.30
2018-07-27T19:55:01.484Z,96784.44
2018-07-27T19:57:30.352Z,96780.20
2018-07-27T19:59:59.295Z,96785.97
2018-07-27T20:02:28.124Z,96782.88
2018-07-27T20:04:56.731Z,96782.65
2018-07-27T20:07:25.748Z,96775.94
2018-07-27T20:09:54.383Z,96778.77
2018-07-27T20:12:23.123Z,96780.14
2018-07-27T20:14:52.238Z,96782.62
2018-07-27T20:17:21.028Z,96783.81
2018-07-27T20:19:49.709Z,96774.97
2018-07-27T20:22:18.404Z,96772.73
2018-07-27T20:24:47.333Z,96773.28
2018-07-27T20:27:16.149Z,96772.48
2018-07-27T20:29:45.259Z,96774.14
2018-07-27T20:32:14.143Z,96772.89
2018-07-27T20:34:43.432Z,96775.86
2018-07-27T20:37:12.528Z,96773.94
2018-07-27T20:39:41.331Z,96778.02
2018-07-27T20:42:10.068Z,96772.81
2018-07-27T20:44:39.134Z,96774.77
2018-07-27T20:47:07.861Z,96772.20
2018-07-27T20:49:36.551Z,96768.72
2018-07-27T20:52:05.294Z,96768.39
2018-07-27T20:54:34.320Z,96767.78
2018-07-27T20:57:03.060Z,96774.12
2018-07-27T20:59:32.014Z,96766.95
2018-07-27T21:02:00.907Z,96765.27
2018-07-27T21:04:29.548Z,96769.41
2018-07-27T21:06:58.118Z,96767.66
2018-07-27T21:09:26.804Z,96767.78
2018-07-27T21:11:55.808Z,96770.99
2018-07-27T21:14:24.679Z,96770.03
2018-07-27T21:16:53.379Z,96770.64
2018-07-27T21:19:22.134Z,96766.32
2018-07-27T21:21:50.999Z,96770.18
2018-07-27T21:24:19.667Z,96772.21
2018-07-27T21:26:48.341Z,96769.27
2018-07-27T21:29:17.139Z,96766.68
2018-07-27T21:31:45.909Z,96771.13
2018-07-27T21:34:15.032Z,96768.40
2018-07-27T21:36:43.775Z,96765.00
2018-07-27T21:39:13.880Z,96762.94
2018-07-27T21:41:42.989Z,96767.99
2018-07-27T21:44:11.943Z,96764.77
2018-07-27T21:46:40.741Z,96764.47
2018-07-27T21:49:09.455Z,96759.27
2018-07-27T21:51:38.203Z,96755.41
2018-07-27T21:54:06.889Z,96749.70
2018-07-27T21:56:35.915Z,96746.14
2018-07-27T21:59:04.676Z,96744.25
2018-07-27T22:01:33.509Z,96739.87
2018-07-27T22:04:02.712Z,96739.20
2018-07-27T22:06:31.583Z,96732.90
2018-07-27T22:09:00.461Z,96733.09
2018-07-27T22:11:29.032Z,96732.78
2018-07-27T22:13:57.661Z,96734.87
2018-07-27T22:16:26.500Z,96735.05
2018-07-27T22:18:56.055Z,96727.11
2018-07-27T22:21:24.669Z,96729.04
2018-07-27T22:23:53.500Z,96728.92
2018-07-27T22:26:22.548Z,96721.46
2018-07-27T22:28:51.869Z,96728.44
2018-07-27T22:31:20.610Z,96724.72
2018-07-27T22:33:49.487Z,96728.91
2018-07-27T22:36:18.532Z,96727.95
2018-07-27T22:38:47.496Z,96727.64
2018-07-27T22:41:16.248Z,96731.70
2018-07-27T22:43:45.131Z,96724.07
2018-07-27T22:46:13.844Z,96721.80
2018-07-27T22:48:42.499Z,96720.68
2018-07-27T22:51:11.159Z,96723.59
2018-07-27T22:53:39.849Z,96721.48
2018-07-27T22:56:08.772Z,96715.17
2018-07-27T22:58:37.643Z,96717.80
2018-07-27T23:01:06.266Z,96722.30
2018-07-27T23:03:35.145Z,96717.43
2018-07-27T23:06:04.060Z,96723.26
2018-07-27T23:08:32.701Z,96719.85
2018-07-27T23:11:01.637Z,96725.70
2018-07-27T23:13:30.259Z,96729.58
2018-07-27T23:15:58.947Z,96723.10
2018-07-27T23:18:28.076Z,96719.20
2018-07-27T23:20:56.656Z,96718.72
2018-07-27T23:23:25.599Z,96718.86
2018-07-27T23:25:54.320Z,96722.62
2018-07-27T23:28:23.121Z,96719.35
2018-07-27T23:30:51.979Z,96719.53
2018-07-27T23:33:20.914Z,96717.41
2018-07-27T23:35:49.707Z,96716.57
2018-07-27T23:38:18.361Z,96713.67
2018-07-27T23:40:48.011Z,96704.59
2018-07-27T23:43:16.643Z,96701.33
2018-07-27T23:45:45.211Z,96703.10
2018-07-27T23:48:14.316Z,96699.05
2018-07-27T23:50:44.220Z,96695.14
2018-07-27T23:53:13.064Z,96696.91
2018-07-27T23:55:41.829Z,96697.39
2018-07-27T23:58:10.640Z,96704.68
